createdAt,value
2023-05-12T00:03:08.460Z,10.50
2023-05-12T00:05:35.237Z,10.50
2023-05-12T00:08:01.952Z,10.50
2023-05-12T00:10:28.665Z,10.50
2023-05-12T00:12:55.709Z,10.50
2023-05-12T00:15:22.616Z,10.50
2023-05-12T00:17:49.607Z,10.50
2023-05-12T00:20:16.439Z,10.60
2023-05-12T00:22:43.365Z,10.60
2023-05-12T00:25:10.108Z,10.60
2023-05-12T00:27:36.772Z,10.60
2023-05-12T00:30:03.656Z,10.50
2023-05-12T00:32:30.461Z,10.40
2023-05-12T00:34:57.399Z,10.40
2023-05-12T00:37:24.155Z,10.30
2023-05-12T00:39:50.828Z,10.30
2023-05-12T00:42:17.498Z,10.30
2023-05-12T00:44:44.270Z,10.20
2023-05-12T00:47:10.997Z,10.20
2023-05-12T00:49:37.748Z,10.20
2023-05-12T00:52:04.826Z,10.20
2023-05-12T00:54:31.549Z,10.20
2023-05-12T00:56:58.252Z,10.20
2023-05-12T00:59:24.974Z,10.20
2023-05-12T01:01:51.841Z,10.20
2023-05-12T01:04:18.642Z,10.10
2023-05-12T01:06:48.952Z,10.00
2023-05-12T01:09:15.785Z,10.00
2023-05-12T01:11:42.477Z,10.00
2023-05-12T01:14:09.205Z,9.90
2023-05-12T01:16:38.992Z,9.90
2023-05-12T01:19:07.357Z,9.90
2023-05-12T01:21:34.217Z,9.90
2023-05-12T01:24:03.163Z,9.90
2023-05-12T01:26:29.948Z,9.90
2023-05-12T01:28:56.940Z,9.90
2023-05-12T01:31:24.117Z,9.90
2023-05-12T01:33:50.832Z,9.90
2023-05-12T01:36:17.492Z,9.90
2023-05-12T01:38:44.294Z,9.90
2023-05-12T01:41:10.961Z,9.90
2023-05-12T01:43:37.760Z,9.90
2023-05-12T01:46:04.530Z,9.90
2023-05-12T01:48:31.321Z,10.10
2023-05-12T01:51:00.696Z,10.20
2023-05-12T01:53:27.407Z,10.40
2023-05-12T01:55:54.099Z,10.50
2023-05-12T01:58:20.759Z,10.60
2023-05-12T02:00:47.413Z,10.80
2023-05-12T02:03:14.267Z,10.90
2023-05-12T02:05:41.289Z,10.90
2023-05-12T02:08:07.978Z,11.00
2023-05-12T02:10:34.670Z,11.20
2023-05-12T02:13:01.511Z,11.20
2023-05-12T02:15:28.249Z,11.30
2023-05-12T02:17:55.335Z,11.30
2023-05-12T02:20:22.248Z,11.30
2023-05-12T02:22:49.062Z,11.40
2023-05-12T02:25:15.923Z,11.40
2023-05-12T02:27:44.944Z,11.40
2023-05-12T02:30:11.955Z,11.40
2023-05-12T02:32:38.748Z,11.40
2023-05-12T02:35:05.992Z,11.50
2023-05-12T02:37:33.345Z,11.50
2023-05-12T02:40:00.038Z,11.50
2023-05-12T02:42:28.915Z,11.50
2023-05-12T02:44:55.648Z,11.50
2023-05-12T02:47:22.386Z,11.50
2023-05-12T02:49:49.480Z,11.50
2023-05-12T02:52:16.133Z,11.50
2023-05-12T02:54:42.806Z,11.50
2023-05-12T02:57:10.784Z,11.50
2023-05-12T02:59:37.468Z,11.50
2023-05-12T03:02:05.471Z,11.50
2023-05-12T03:04:33.131Z,11.40
2023-05-12T03:06:59.808Z,11.40
2023-05-12T03:09:26.470Z,11.40
2023-05-12T03:11:53.142Z,11.40
2023-05-12T03:14:19.810Z,11.40
2023-05-12T03:16:46.549Z,11.40
2023-05-12T03:19:13.343Z,11.40
2023-05-12T03:21:40.073Z,11.50
2023-05-12T03:24:07.019Z,11.50
2023-05-12T03:26:33.699Z,11.50
2023-05-12T03:29:00.504Z,11.50
2023-05-12T03:31:27.242Z,11.40
2023-05-12T03:33:54.068Z,11.40
2023-05-12T03:36:20.786Z,11.40
2023-05-12T03:38:47.604Z,11.30
2023-05-12T03:41:14.286Z,11.30
2023-05-12T03:43:40.998Z,11.30
2023-05-12T03:46:08.005Z,11.30
2023-05-12T03:48:34.746Z,11.30
2023-05-12T03:51:01.448Z,11.30
2023-05-12T03:53:28.204Z,11.30
2023-05-12T03:55:54.880Z,11.30
2023-05-12T03:58:25.979Z,11.40
2023-05-12T04:00:52.647Z,11.40
2023-05-12T04:03:19.413Z,11.40
2023-05-12T04:05:46.367Z,11.40
2023-05-12T04:08:13.030Z,11.40
2023-05-12T04:10:40.425Z,11.30
2023-05-12T04:13:08.123Z,11.40
2023-05-12T04:15:35.691Z,11.40
2023-05-12T04:18:03.620Z,11.40
2023-05-12T04:20:30.312Z,11.40
2023-05-12T04:22:57.070Z,11.40
2023-05-12T04:25:23.775Z,11.40
2023-05-12T04:27:50.483Z,11.40
2023-05-12T04:30:17.351Z,11.40
2023-05-12T04:32:44.233Z,11.30
2023-05-12T04:35:10.988Z,11.30
2023-05-12T04:37:37.827Z,11.30
2023-05-12T04:40:05.629Z,11.30
2023-05-12T04:42:32.322Z,11.30
2023-05-12T04:44:59.005Z,11.30
2023-05-12T04:47:25.800Z,11.30
2023-05-12T04:49:54.872Z,11.30
2023-05-12T04:52:24.001Z,11.40
2023-05-12T04:54:51.630Z,11.40
2023-05-12T04:57:18.316Z,11.40
2023-05-12T04:59:45.263Z,11.40
2023-05-12T05:02:12.021Z,11.50
2023-05-12T05:04:38.871Z,11.40
2023-05-12T05:07:05.714Z,11.40
2023-05-12T05:09:33.405Z,11.40
2023-05-12T05:12:01.691Z,11.30
2023-05-12T05:14:28.388Z,11.30
2023-05-12T05:16:55.081Z,11.30
2023-05-12T05:19:30.219Z,11.30
2023-05-12T05:22:08.656Z,11.20
2023-05-12T05:24:35.369Z,11.20
2023-05-12T05:27:02.164Z,11.20
2023-05-12T05:29:28.861Z,11.20
2023-05-12T05:31:55.696Z,11.20
2023-05-12T05:34:22.520Z,11.20
2023-05-12T05:36:49.202Z,11.30
2023-05-12T05:39:15.934Z,11.30
2023-05-12T05:41:42.719Z,11.30
2023-05-12T05:44:09.490Z,11.40
2023-05-12T05:46:36.270Z,11.50
2023-05-12T05:49:02.975Z,11.50
2023-05-12T05:51:29.647Z,11.50
2023-05-12T05:53:56.419Z,11.60
2023-05-12T05:56:23.242Z,11.60
2023-05-12T05:58:49.939Z,11.70
2023-05-12T06:01:16.690Z,11.70
2023-05-12T06:03:43.547Z,11.70
2023-05-12T06:06:10.698Z,11.80
2023-05-12T06:08:37.387Z,11.80
2023-05-12T06:11:04.463Z,11.80
2023-05-12T06:13:31.403Z,12.00
2023-05-12T06:15:58.153Z,12.00
2023-05-12T06:18:24.895Z,12.10
2023-05-12T06:20:51.649Z,12.10
2023-05-12T06:23:18.341Z,12.10
2023-05-12T06:25:45.043Z,12.20
2023-05-12T06:28:11.800Z,12.20
2023-05-12T06:30:39.383Z,12.20
2023-05-12T06:33:06.077Z,12.30
2023-05-12T06:35:32.820Z,12.30
2023-05-12T06:37:59.561Z,12.40
2023-05-12T06:40:26.364Z,12.40
2023-05-12T06:42:53.059Z,12.40
2023-05-12T06:45:20.263Z,12.40
2023-05-12T06:47:47.361Z,12.50
2023-05-12T06:50:15.511Z,12.60
2023-05-12T06:52:43.207Z,12.70
2023-05-12T06:55:09.944Z,12.70
2023-05-12T06:57:36.881Z,12.70
2023-05-12T07:00:05.177Z,12.70
2023-05-12T07:02:32.042Z,12.80
2023-05-12T07:04:58.715Z,12.80
2023-05-12T07:07:25.468Z,12.80
2023-05-12T07:09:52.215Z,12.80
2023-05-12T07:12:19.006Z,12.80
2023-05-12T07:14:45.754Z,13.00
2023-05-12T07:17:12.501Z,13.00
2023-05-12T07:19:40.238Z,13.10
2023-05-12T07:22:07.083Z,13.20
2023-05-12T07:24:33.750Z,13.20
2023-05-12T07:27:02.682Z,13.30
2023-05-12T07:29:29.476Z,13.30
2023-05-12T07:31:56.325Z,13.30
2023-05-12T07:34:23.020Z,13.30
2023-05-12T07:36:49.699Z,13.30
2023-05-12T07:39:19.367Z,13.30
2023-05-12T07:41:46.205Z,13.40
2023-05-12T07:44:12.859Z,13.40
2023-05-12T07:46:39.583Z,13.50
2023-05-12T07:49:07.306Z,13.60
2023-05-12T07:51:34.053Z,13.60
2023-05-12T07:54:01.535Z,13.70
2023-05-12T07:56:28.296Z,13.80
2023-05-12T07:58:55.092Z,13.90
2023-05-12T08:01:21.834Z,14.00
2023-05-12T08:03:48.640Z,13.90
2023-05-12T08:06:15.532Z,13.90
2023-05-12T08:08:42.364Z,13.80
2023-05-12T08:11:09.129Z,13.80
2023-05-12T08:13:38.959Z,13.80
2023-05-12T08:16:06.256Z,13.90
2023-05-12T08:18:33.003Z,13.90
2023-05-12T08:20:59.807Z,14.00
2023-05-12T08:23:26.478Z,14.00
2023-05-12T08:25:53.191Z,14.00
2023-05-12T08:28:19.897Z,14.00
2023-05-12T08:30:46.636Z,14.00
2023-05-12T08:33:13.995Z,14.00
2023-05-12T08:35:41.083Z,14.10
2023-05-12T08:38:07.895Z,14.10
2023-05-12T08:40:38.378Z,14.20
2023-05-12T08:43:11.248Z,14.20
2023-05-12T08:45:38.355Z,14.30
2023-05-12T08:48:05.733Z,14.40
2023-05-12T08:50:32.813Z,14.50
2023-05-12T08:52:59.581Z,14.50
2023-05-12T08:55:30.860Z,14.60
2023-05-12T08:57:59.975Z,14.60
2023-05-12T09:00:26.994Z,14.60
2023-05-12T09:02:54.965Z,14.70
2023-05-12T09:05:22.891Z,14.70
2023-05-12T09:07:50.271Z,14.80
2023-05-12T09:10:32.797Z,14.80
2023-05-12T09:13:24.682Z,14.70
2023-05-12T09:15:53.265Z,14.80
2023-05-12T09:18:20.138Z,14.80
2023-05-12T09:20:47.199Z,14.70
2023-05-12T09:23:18.557Z,14.70
2023-05-12T09:25:47.026Z,14.70
2023-05-12T09:28:13.926Z,14.80
2023-05-12T09:30:42.478Z,14.80
2023-05-12T09:33:10.416Z,14.90
2023-05-12T09:35:45.260Z,15.00
2023-05-12T09:38:13.280Z,15.00
2023-05-12T09:40:40.396Z,15.00
2023-05-12T09:43:07.692Z,15.00
2023-05-12T09:45:36.056Z,15.00
2023-05-12T09:48:09.531Z,14.90
2023-05-12T09:50:47.220Z,14.80
2023-05-12T09:53:17.421Z,14.90
2023-05-12T09:55:44.730Z,14.80
2023-05-12T09:58:11.558Z,14.70
2023-05-12T10:00:58.574Z,14.60
2023-05-12T10:03:26.384Z,14.50
2023-05-12T10:06:04.539Z,14.40
2023-05-12T10:08:34.188Z,14.20
2023-05-12T10:11:01.934Z,14.20
2023-05-12T10:13:28.908Z,14.10
2023-05-12T10:15:57.053Z,14.00
2023-05-12T10:18:24.464Z,13.90
2023-05-12T10:20:52.018Z,14.00
2023-05-12T10:23:18.905Z,14.00
2023-05-12T10:25:45.963Z,14.00
2023-05-12T10:28:12.773Z,14.00
2023-05-12T10:30:39.874Z,13.90
2023-05-12T10:33:08.709Z,13.90
2023-05-12T10:35:36.344Z,13.80
2023-05-12T10:38:16.478Z,13.70
2023-05-12T10:40:58.256Z,13.60
2023-05-12T10:43:26.676Z,13.60
2023-05-12T10:46:16.108Z,13.50
2023-05-12T10:49:10.135Z,13.40
2023-05-12T10:51:43.239Z,13.40
2023-05-12T10:54:11.083Z,13.40
2023-05-12T10:56:38.418Z,13.40
2023-05-12T10:59:13.010Z,13.40
2023-05-12T11:01:57.712Z,13.30
2023-05-12T11:04:50.565Z,13.20
2023-05-12T11:07:22.484Z,13.10
2023-05-12T11:12:19.371Z,13.00
2023-05-12T11:14:46.783Z,13.00
2023-05-12T11:17:13.858Z,13.00
2023-05-12T11:19:44.484Z,13.00
2023-05-12T11:22:11.770Z,13.00
2023-05-12T11:24:39.843Z,13.00
2023-05-12T11:27:08.000Z,12.90
2023-05-12T11:29:34.923Z,12.90
2023-05-12T11:32:02.023Z,12.80
2023-05-12T11:34:28.888Z,12.80
2023-05-12T11:36:56.208Z,12.70
2023-05-12T11:39:25.034Z,12.70
2023-05-12T11:41:59.285Z,12.70
2023-05-12T11:44:32.512Z,12.70
2023-05-12T11:47:01.995Z,12.70
2023-05-12T11:49:30.755Z,12.60
2023-05-12T11:52:01.596Z,12.60
2023-05-12T11:54:28.928Z,12.50
2023-05-12T11:56:56.226Z,12.50
2023-05-12T11:59:35.191Z,12.50
2023-05-12T12:02:02.978Z,12.50
2023-05-12T12:04:37.038Z,12.50
2023-05-12T12:07:05.400Z,12.50
2023-05-12T12:09:37.050Z,12.60
2023-05-12T12:12:04.892Z,12.70
2023-05-12T12:14:32.710Z,12.70
2023-05-12T12:17:00.191Z,12.70
2023-05-12T12:19:27.979Z,12.70
2023-05-12T12:21:55.747Z,12.70
2023-05-12T12:24:22.699Z,12.70
2023-05-12T12:26:49.419Z,12.70
2023-05-12T12:29:16.434Z,12.70
2023-05-12T12:31:43.831Z,12.60
2023-05-12T12:34:10.803Z,12.70
2023-05-12T12:36:37.657Z,12.60
2023-05-12T12:39:04.768Z,12.60
2023-05-12T12:41:31.571Z,12.60
2023-05-12T12:43:58.393Z,12.60
2023-05-12T12:46:25.670Z,12.60
2023-05-12T12:48:52.505Z,12.50
2023-05-12T12:51:19.244Z,12.40
2023-05-12T12:53:46.174Z,12.40
2023-05-12T12:56:12.905Z,12.50
2023-05-12T12:58:39.640Z,12.40
2023-05-12T13:01:06.712Z,12.50
2023-05-12T13:03:33.526Z,12.50
2023-05-12T13:06:00.549Z,12.60
2023-05-12T13:08:27.428Z,12.50
2023-05-12T13:10:54.799Z,12.40
2023-05-12T13:13:21.564Z,12.40
2023-05-12T13:15:48.433Z,12.40
2023-05-12T13:18:15.209Z,12.40
2023-05-12T13:20:42.176Z,12.40
2023-05-12T13:23:09.011Z,12.40
2023-05-12T13:25:35.950Z,12.40
2023-05-12T13:28:02.928Z,12.40
2023-05-12T13:30:29.682Z,12.40
2023-05-12T13:32:56.502Z,12.40
2023-05-12T13:35:23.600Z,12.40
2023-05-12T13:37:50.434Z,12.30
2023-05-12T13:40:17.364Z,12.30
2023-05-12T13:42:44.044Z,12.20
2023-05-12T13:45:11.237Z,12.20
2023-05-12T13:47:38.046Z,12.20
2023-05-12T13:50:06.297Z,12.20
2023-05-12T13:52:33.782Z,12.30
2023-05-12T13:55:00.565Z,12.20
2023-05-12T13:57:27.419Z,12.20
2023-05-12T13:59:57.687Z,12.20
2023-05-12T14:02:25.251Z,12.20
2023-05-12T14:04:52.446Z,12.10
2023-05-12T14:07:19.366Z,12.10
2023-05-12T14:09:46.137Z,12.00
2023-05-12T14:12:13.002Z,12.00
2023-05-12T14:14:39.915Z,12.10
2023-05-12T14:17:06.890Z,12.00
2023-05-12T14:19:35.959Z,12.10
2023-05-12T14:22:05.904Z,12.10
2023-05-12T14:24:36.881Z,12.10
2023-05-12T14:27:03.735Z,12.10
2023-05-12T14:29:30.852Z,12.10
2023-05-12T14:31:57.796Z,12.20
2023-05-12T14:34:24.524Z,12.20
2023-05-12T14:36:51.254Z,12.20
2023-05-12T14:39:17.925Z,12.20
2023-05-12T14:41:44.633Z,12.20
2023-05-12T14:44:11.412Z,12.20
2023-05-12T14:46:38.524Z,12.20
2023-05-12T14:49:10.609Z,12.20
2023-05-12T14:51:38.364Z,12.20
2023-05-12T14:54:10.080Z,12.20
2023-05-12T14:56:45.465Z,12.30
2023-05-12T14:59:12.166Z,12.30
2023-05-12T15:01:39.126Z,12.30
2023-05-12T15:04:05.881Z,12.30
2023-05-12T15:06:32.649Z,12.30
2023-05-12T15:08:59.330Z,12.30
2023-05-12T15:11:26.113Z,12.30
2023-05-12T15:13:52.929Z,12.30
2023-05-12T15:16:19.826Z,12.30
2023-05-12T15:18:46.651Z,12.30
2023-05-12T15:21:13.450Z,12.40
2023-05-12T15:23:43.278Z,12.30
2023-05-12T15:26:27.040Z,12.30
2023-05-12T15:28:56.647Z,12.30
2023-05-12T15:31:23.388Z,12.30
2023-05-12T15:33:50.151Z,12.30
2023-05-12T15:36:16.881Z,12.30
2023-05-12T15:38:47.108Z,12.30
2023-05-12T15:41:13.860Z,12.40
2023-05-12T15:43:41.063Z,12.40
2023-05-12T15:46:08.169Z,12.40
2023-05-12T15:48:34.938Z,12.40
2023-05-12T15:51:04.022Z,12.40
2023-05-12T15:53:31.177Z,12.40
2023-05-12T15:56:04.559Z,12.40
2023-05-12T15:58:31.590Z,12.40
2023-05-12T16:00:58.547Z,12.40
2023-05-12T16:03:25.472Z,12.40
2023-05-12T16:05:52.613Z,12.50
2023-05-12T16:08:19.347Z,12.50
2023-05-12T16:10:46.022Z,12.50
2023-05-12T16:13:13.749Z,12.60
2023-05-12T16:15:40.761Z,12.60
2023-05-12T16:18:10.215Z,12.60
2023-05-12T16:20:37.988Z,12.50
2023-05-12T16:23:04.847Z,12.50
2023-05-12T16:25:31.560Z,12.50
2023-05-12T16:27:58.266Z,12.50
2023-05-12T16:30:25.068Z,12.50
2023-05-12T16:32:52.006Z,12.50
2023-05-12T16:35:18.972Z,12.50
2023-05-12T16:37:46.024Z,12.50
2023-05-12T16:40:12.862Z,12.50
2023-05-12T16:42:39.686Z,12.40
2023-05-12T16:45:07.077Z,12.40
2023-05-12T16:47:33.851Z,12.40
2023-05-12T16:50:00.668Z,12.40
2023-05-12T16:52:27.402Z,12.40
2023-05-12T16:54:56.176Z,12.40
2023-05-12T16:57:23.404Z,12.30
2023-05-12T16:59:50.243Z,12.30
2023-05-12T17:02:17.173Z,12.20
2023-05-12T17:04:44.657Z,12.20
2023-05-12T17:07:11.480Z,12.30
2023-05-12T17:09:38.381Z,12.30
2023-05-12T17:12:06.876Z,12.30
2023-05-12T17:14:36.563Z,12.30
2023-05-12T17:17:03.318Z,12.40
2023-05-12T17:19:30.030Z,12.30
2023-05-12T17:21:56.851Z,12.30
2023-05-12T17:24:23.536Z,12.30
2023-05-12T17:26:50.433Z,12.30
2023-05-12T17:29:17.677Z,12.20
2023-05-12T17:31:44.429Z,12.20
2023-05-12T17:34:11.186Z,12.20
2023-05-12T17:36:38.035Z,12.20
2023-05-12T17:39:05.048Z,12.20
2023-05-12T17:41:31.733Z,12.30
2023-05-12T17:43:58.413Z,12.20
2023-05-12T17:46:25.188Z,12.10
2023-05-12T17:48:51.928Z,12.10
2023-05-12T17:51:18.614Z,12.10
2023-05-12T17:53:46.272Z,12.10
2023-05-12T17:56:12.996Z,12.10
2023-05-12T17:58:39.742Z,12.00
2023-05-12T18:01:06.511Z,12.00
2023-05-12T18:03:33.322Z,12.00
2023-05-12T18:06:00.034Z,12.00
2023-05-12T18:08:27.208Z,12.00
2023-05-12T18:10:54.020Z,12.00
2023-05-12T18:13:20.775Z,12.00
2023-05-12T18:15:48.971Z,11.90
2023-05-12T18:18:15.684Z,11.90
2023-05-12T18:20:42.538Z,11.90
2023-05-12T18:23:09.456Z,11.90
2023-05-12T18:25:36.356Z,11.90
2023-05-12T18:28:03.186Z,12.00
2023-05-12T18:30:29.961Z,12.00
2023-05-12T18:32:56.987Z,12.00
2023-05-12T18:35:24.807Z,11.90
2023-05-12T18:37:51.566Z,11.90
2023-05-12T18:40:18.337Z,11.90
2023-05-12T18:42:45.141Z,11.90
2023-05-12T18:45:12.106Z,11.80
2023-05-12T18:47:39.328Z,11.80
2023-05-12T18:50:06.450Z,11.80
2023-05-12T18:52:33.112Z,11.80
2023-05-12T18:54:59.963Z,11.80
2023-05-12T18:57:26.766Z,11.80
2023-05-12T18:59:53.685Z,11.80
2023-05-12T19:02:20.830Z,11.80
2023-05-12T19:04:50.471Z,11.80
2023-05-12T19:07:17.482Z,11.80
2023-05-12T19:09:44.355Z,11.80
2023-05-12T19:12:11.751Z,11.80
2023-05-12T19:14:43.234Z,11.70
2023-05-12T19:17:10.286Z,11.70
2023-05-12T19:19:37.012Z,11.70
2023-05-12T19:22:04.354Z,11.70
2023-05-12T19:24:31.427Z,11.70
2023-05-12T19:26:58.159Z,11.70
2023-05-12T19:29:24.917Z,11.70
2023-05-12T19:31:53.046Z,11.70
2023-05-12T19:34:20.002Z,11.70
2023-05-12T19:36:46.776Z,11.70
2023-05-12T19:39:13.592Z,11.60
2023-05-12T19:41:41.039Z,11.60
2023-05-12T19:44:07.790Z,11.70
2023-05-12T19:46:34.625Z,11.60
2023-05-12T19:49:02.437Z,11.60
2023-05-12T19:51:29.271Z,11.60
2023-05-12T19:53:55.980Z,11.60
2023-05-12T19:56:22.704Z,11.50
2023-05-12T19:58:49.751Z,11.50
2023-05-12T20:01:16.497Z,11.60
2023-05-12T20:03:43.709Z,11.60
2023-05-12T20:06:11.022Z,11.50
2023-05-12T20:08:38.006Z,11.50
2023-05-12T20:11:04.839Z,11.50
2023-05-12T20:13:31.737Z,11.60
2023-05-12T20:15:58.581Z,11.60
2023-05-12T20:18:25.540Z,11.50
2023-05-12T20:20:52.363Z,11.60
2023-05-12T20:23:19.214Z,11.60
2023-05-12T20:25:46.019Z,11.60
2023-05-12T20:28:13.131Z,11.50
2023-05-12T20:30:39.894Z,11.50
2023-05-12T20:33:06.666Z,11.50
2023-05-12T20:35:33.466Z,11.50
2023-05-12T20:38:00.275Z,11.50
2023-05-12T20:40:27.076Z,11.50
2023-05-12T20:42:53.920Z,11.50
2023-05-12T20:45:21.113Z,11.40
2023-05-12T20:47:48.037Z,11.40
2023-05-12T20:50:15.159Z,11.40
2023-05-12T20:52:41.990Z,11.40
2023-05-12T20:55:09.452Z,11.40
2023-05-12T20:57:37.621Z,11.40
2023-05-12T21:00:04.860Z,11.40
2023-05-12T21:02:31.757Z,11.40
2023-05-12T21:04:58.526Z,11.40
2023-05-12T21:07:25.303Z,11.40
2023-05-12T21:09:52.069Z,11.40
2023-05-12T21:12:18.783Z,11.40
2023-05-12T21:14:45.630Z,11.40
2023-05-12T21:17:12.997Z,11.40
2023-05-12T21:19:40.007Z,11.40
2023-05-12T21:22:07.186Z,11.40
2023-05-12T21:24:34.272Z,11.40
2023-05-12T21:27:04.496Z,11.30
2023-05-12T21:29:31.659Z,11.40
2023-05-12T21:31:58.462Z,11.40
2023-05-12T21:34:25.448Z,11.40
2023-05-12T21:36:52.257Z,11.40
2023-05-12T21:39:18.981Z,11.40
2023-05-12T21:41:46.005Z,11.30
2023-05-12T21:44:12.810Z,11.30
2023-05-12T21:46:39.757Z,11.30
2023-05-12T21:49:06.744Z,11.30
2023-05-12T21:51:33.497Z,11.20
2023-05-12T21:54:00.707Z,11.30
2023-05-12T21:56:27.394Z,11.30
2023-05-12T21:58:54.241Z,11.30
2023-05-12T22:01:20.992Z,11.30
2023-05-12T22:03:47.896Z,11.30
2023-05-12T22:06:14.704Z,11.30
2023-05-12T22:08:41.460Z,11.30
2023-05-12T22:11:08.210Z,11.30
2023-05-12T22:13:35.040Z,11.30
2023-05-12T22:16:02.897Z,11.30
2023-05-12T22:18:29.936Z,11.30
2023-05-12T22:20:56.787Z,11.30
2023-05-12T22:23:23.526Z,11.20
2023-05-12T22:25:50.388Z,11.20
2023-05-12T22:28:17.979Z,11.20
2023-05-12T22:30:44.760Z,11.30
2023-05-12T22:33:11.768Z,11.30
2023-05-12T22:35:38.531Z,11.20
2023-05-12T22:38:05.773Z,11.20
2023-05-12T22:40:33.781Z,11.20
2023-05-12T22:43:00.635Z,11.20
2023-05-12T22:45:27.597Z,11.20
2023-05-12T22:47:54.643Z,11.10
2023-05-12T22:50:21.775Z,11.10
2023-05-12T22:52:48.734Z,11.10
2023-05-12T22:55:15.732Z,11.10
2023-05-12T22:57:43.752Z,11.00
2023-05-12T23:00:11.581Z,11.10
2023-05-12T23:02:38.431Z,11.10
2023-05-12T23:05:05.817Z,11.10
2023-05-12T23:07:32.680Z,11.10
2023-05-12T23:09:59.471Z,11.10
2023-05-12T23:12:26.171Z,11.10
2023-05-12T23:14:52.916Z,11.10
2023-05-12T23:17:20.827Z,11.20
2023-05-12T23:19:47.653Z,11.20
2023-05-12T23:22:14.387Z,11.20
2023-05-12T23:24:41.229Z,11.20
2023-05-12T23:27:07.988Z,11.20
2023-05-12T23:29:34.769Z,11.10
2023-05-12T23:32:01.802Z,11.10
2023-05-12T23:34:28.585Z,11.10
2023-05-12T23:36:55.293Z,11.10
2023-05-12T23:39:21.983Z,11.00
2023-05-12T23:41:49.612Z,11.10
2023-05-12T23:44:16.388Z,11.10
2023-05-12T23:46:43.290Z,11.10
2023-05-12T23:49:10.244Z,11.10
2023-05-12T23:51:36.968Z,11.10
2023-05-12T23:54:03.779Z,11.20
2023-05-12T23:56:30.920Z,11.10
2023-05-12T23:58:57.668Z,11.10
